Time;durP1;ratioP1;P1;durP2;ratioP2;P2;SDS_P1;SDS_P2;PMS_P1;PMS_P2;Temp;Humidity;BMP_temperature;BMP_pressure;BME280_temperature;BME280_humidity;BME280_pressure;Samples;Min_cycle;Max_cycle;Signal;HPM_P1;HPM_P2
2023/10/31 00:01:05;;;;;;;1.35;0.70;;;;;;;11.26;97.07;96436.19;5068993;28;20208;-78
2023/10/31 00:03:33;;;;;;;0.82;0.77;;;;;;;11.22;97.86;96445.84;5066587;28;20231;-78
2023/10/31 00:05:59;;;;;;;1.05;0.95;;;;;;;11.26;97.28;96441.59;5066903;28;20201;-78
2023/10/31 00:08:26;;;;;;;1.02;0.98;;;;;;;11.26;97.88;96452.44;5069325;28;20586;-78
2023/10/31 00:10:52;;;;;;;1.13;1.00;;;;;;;11.39;98.36;96451.25;5069643;28;20208;-79
2023/10/31 00:13:18;;;;;;;1.73;1.33;;;;;;;11.20;98.73;96441.75;5062281;28;20208;-78
2023/10/31 00:15:45;;;;;;;1.58;0.95;;;;;;;11.29;98.69;96457.34;5066008;28;20216;-78
2023/10/31 00:18:11;;;;;;;0.95;0.85;;;;;;;11.13;97.97;96476.28;5068839;28;20215;-79
2023/10/31 00:20:40;;;;;;;1.85;0.88;;;;;;;11.06;98.88;96479.13;5067285;28;20295;-78
2023/10/31 00:23:06;;;;;;;0.98;0.70;;;;;;;11.11;98.09;96488.16;5070217;28;20238;-78
2023/10/31 00:25:33;;;;;;;1.00;0.93;;;;;;;11.04;98.98;96481.28;5069329;28;20204;-78
2023/10/31 00:27:59;;;;;;;1.38;0.80;;;;;;;11.07;99.05;96475.34;5069331;28;20199;-78
2023/10/31 00:30:26;;;;;;;0.80;0.70;;;;;;;11.04;98.89;96479.41;5069473;28;20219;-78
2023/10/31 00:32:52;;;;;;;0.77;0.75;;;;;;;11.16;98.05;96484.72;5068894;28;20216;-77
2023/10/31 00:35:19;;;;;;;0.70;0.60;;;;;;;11.11;98.16;96490.88;5065580;28;20667;-77
2023/10/31 00:37:46;;;;;;;1.17;0.60;;;;;;;11.15;97.22;96496.63;5067076;28;20208;-78
2023/10/31 00:40:13;;;;;;;0.70;0.70;;;;;;;11.06;96.02;96500.78;5067984;28;20734;-78
2023/10/31 00:42:41;;;;;;;0.90;0.70;;;;;;;11.14;95.38;96492.28;5069419;28;20315;-78
2023/10/31 00:45:09;;;;;;;0.57;0.52;;;;;;;11.06;94.55;96500.78;5067935;28;20231;-77
2023/10/31 00:47:35;;;;;;;0.77;0.50;;;;;;;11.07;94.54;96497.03;5069406;28;20207;-77
2023/10/31 00:50:02;;;;;;;0.80;0.57;;;;;;;10.96;95.09;96492.50;5066171;28;20687;-77
2023/10/31 00:52:28;;;;;;;0.82;0.60;;;;;;;10.85;94.37;96501.47;5064420;28;20263;-78
2023/10/31 00:54:56;;;;;;;1.10;0.65;;;;;;;10.89;93.80;96503.47;5068977;28;20196;-78
2023/10/31 00:57:23;;;;;;;0.70;0.60;;;;;;;10.70;92.12;96529.09;5067346;28;20204;-78
2023/10/31 00:59:49;;;;;;;1.33;0.70;;;;;;;10.69;91.62;96512.03;5068808;28;20205;-77
2023/10/31 01:02:17;;;;;;;0.80;0.70;;;;;;;10.65;91.58;96510.03;5066991;28;20216;-77
2023/10/31 01:04:43;;;;;;;2.22;0.70;;;;;;;10.66;90.06;96519.81;5068697;28;20230;-77
2023/10/31 01:07:12;;;;;;;0.80;0.70;;;;;;;10.59;89.50;96519.94;5069136;28;20627;-77
2023/10/31 01:09:38;;;;;;;0.80;0.80;;;;;;;10.54;87.61;96514.41;5067670;28;20228;-77
2023/10/31 01:12:07;;;;;;;1.00;0.60;;;;;;;10.48;87.24;96520.78;5062650;28;20307;-76
2023/10/31 01:14:34;;;;;;;2.17;0.70;;;;;;;10.55;86.47;96517.94;5064684;28;20243;-77
2023/10/31 01:17:01;;;;;;;1.75;0.70;;;;;;;10.47;86.08;96524.53;5065817;28;20652;-77
2023/10/31 01:19:27;;;;;;;2.20;0.60;;;;;;;10.47;86.46;96513.72;5064179;28;20211;-77
2023/10/31 01:21:54;;;;;;;2.20;0.80;;;;;;;10.41;86.26;96509.25;5066883;28;20228;-77
2023/10/31 01:24:20;;;;;;;0.98;0.70;;;;;;;10.43;86.01;96516.09;5067865;28;20234;-77
2023/10/31 01:26:47;;;;;;;1.38;0.82;;;;;;;10.43;85.80;96512.56;5069330;28;20665;-77
2023/10/31 01:29:15;;;;;;;1.05;0.70;;;;;;;10.43;85.99;96515.25;5062226;28;20210;-77
2023/10/31 01:31:41;;;;;;;1.92;0.70;;;;;;;10.39;84.92;96523.06;5069352;28;20220;-76
2023/10/31 01:34:09;;;;;;;2.90;1.00;;;;;;;10.46;84.17;96532.91;5065813;28;20204;-77
2023/10/31 01:36:35;;;;;;;2.15;0.75;;;;;;;10.29;85.29;96538.22;5066759;28;20265;-77
2023/10/31 01:39:02;;;;;;;1.30;0.63;;;;;;;10.31;84.81;96545.03;5067888;28;20228;-78
2023/10/31 01:41:28;;;;;;;1.80;0.80;;;;;;;10.20;86.12;96547.75;5067567;28;20201;-77
2023/10/31 01:43:55;;;;;;;0.98;0.80;;;;;;;10.10;85.89;96551.84;5067111;28;20227;-77
2023/10/31 01:46:22;;;;;;;1.35;0.60;;;;;;;10.19;85.94;96565.00;5062290;28;20541;-77
2023/10/31 01:48:49;;;;;;;1.27;0.88;;;;;;;10.06;85.66;96563.38;5066108;28;20266;-77
2023/10/31 01:51:15;;;;;;;1.15;0.57;;;;;;;10.07;86.64;96560.41;5069116;28;20203;-77
2023/10/31 01:53:42;;;;;;;1.13;0.95;;;;;;;10.17;85.36;96551.72;5065549;28;20214;-76
2023/10/31 01:56:08;;;;;;;2.90;1.00;;;;;;;10.19;85.47;96551.47;5065182;28;20202;-77
2023/10/31 01:58:37;;;;;;;0.80;0.70;;;;;;;10.15;84.92;96563.81;5067933;28;20197;-77
2023/10/31 02:01:05;;;;;;;1.50;0.70;;;;;;;10.15;85.05;96566.53;5068082;28;20196;-76
2023/10/31 02:03:34;;;;;;;2.60;0.60;;;;;;;10.16;84.53;96565.47;5063190;28;20221;-78
2023/10/31 02:06:00;;;;;;;2.08;0.80;;;;;;;10.27;84.29;96567.38;5066057;28;20204;-77
2023/10/31 02:08:26;;;;;;;0.80;0.70;;;;;;;10.14;84.27;96571.09;5066657;28;20224;-77
2023/10/31 02:10:53;;;;;;;0.85;0.70;;;;;;;10.17;83.82;96575.22;5068745;28;20207;-76
2023/10/31 02:13:20;;;;;;;0.70;0.70;;;;;;;10.19;84.60;96589.34;5069092;28;20229;-77
2023/10/31 02:15:46;;;;;;;1.15;0.70;;;;;;;10.22;84.50;96581.59;5066996;28;20199;-78
2023/10/31 02:18:13;;;;;;;1.55;0.77;;;;;;;10.32;84.64;96581.84;5065045;28;20208;-78
2023/10/31 02:20:41;;;;;;;1.35;0.70;;;;;;;10.28;84.57;96596.91;5066664;28;20192;-77
2023/10/31 02:23:09;;;;;;;1.10;0.70;;;;;;;10.24;84.89;96600.31;5060668;28;20216;-75
2023/10/31 02:25:35;;;;;;;2.92;0.85;;;;;;;10.26;85.03;96592.78;5059945;28;20226;-79
2023/10/31 02:28:02;;;;;;;1.33;0.60;;;;;;;10.18;85.70;96599.31;5065510;28;20199;-78
2023/10/31 02:30:28;;;;;;;1.02;0.93;;;;;;;10.38;84.67;96580.09;5068590;28;20212;-78
2023/10/31 02:32:55;;;;;;;0.93;0.70;;;;;;;10.24;85.06;96589.47;5067923;28;20219;-78
2023/10/31 02:35:22;;;;;;;0.93;0.68;;;;;;;10.23;84.90;96593.25;5064991;28;20567;-79
2023/10/31 02:37:48;;;;;;;1.80;0.90;;;;;;;10.42;84.55;96595.56;5062680;28;20214;-79
2023/10/31 02:40:16;;;;;;;2.10;0.80;;;;;;;10.45;83.33;96596.97;5063125;28;20200;-79
2023/10/31 02:42:43;;;;;;;1.30;0.88;;;;;;;10.48;83.78;96601.09;5065029;28;20699;-79
2023/10/31 02:45:09;;;;;;;1.80;0.82;;;;;;;10.49;83.92;96614.38;5065892;28;20250;-78
2023/10/31 02:47:36;;;;;;;1.48;0.90;;;;;;;10.51;83.75;96606.88;5068688;28;20208;-79
2023/10/31 02:50:03;;;;;;;2.22;0.80;;;;;;;10.46;83.65;96603.22;5066201;28;20218;-79
2023/10/31 02:52:30;;;;;;;1.10;1.00;;;;;;;10.56;83.33;96612.38;5067335;28;20238;-79
2023/10/31 02:54:56;;;;;;;3.40;1.33;;;;;;;10.65;82.91;96608.25;5067098;28;20235;-79
2023/10/31 02:57:25;;;;;;;1.52;0.80;;;;;;;10.52;83.78;96608.50;5067168;28;20199;-78
2023/10/31 02:59:52;;;;;;;2.75;1.00;;;;;;;10.42;84.08;96609.09;5061035;28;20212;-78
2023/10/31 03:02:18;;;;;;;3.00;0.80;;;;;;;10.37;84.56;96614.41;5064853;28;20212;-79
2023/10/31 03:04:45;;;;;;;0.77;0.73;;;;;;;10.52;83.70;96619.31;5064835;28;20228;-79
2023/10/31 03:07:11;;;;;;;1.33;0.85;;;;;;;10.52;83.24;96624.75;5066087;28;20850;-78
2023/10/31 03:09:38;;;;;;;1.10;0.80;;;;;;;10.45;84.18;96624.03;5064725;28;20208;-79
2023/10/31 03:12:05;;;;;;;4.68;0.93;;;;;;;10.44;83.22;96633.19;5067142;28;20224;-79
2023/10/31 03:14:33;;;;;;;1.20;0.95;;;;;;;10.50;83.47;96634.97;5067469;28;20215;-79
2023/10/31 03:16:59;;;;;;;1.35;0.90;;;;;;;10.37;83.97;96632.53;5068254;28;20196;-79
2023/10/31 03:19:26;;;;;;;1.75;0.82;;;;;;;10.43;83.24;96639.66;5058929;28;20236;-79
2023/10/31 03:21:52;;;;;;;1.20;1.00;;;;;;;10.45;83.36;96640.25;5067815;28;20216;-79
2023/10/31 03:24:18;;;;;;;1.25;0.90;;;;;;;10.47;83.14;96648.97;5066448;28;20223;-78
2023/10/31 03:26:45;;;;;;;1.98;0.80;;;;;;;10.39;84.08;96654.75;5064818;28;20303;-79
2023/10/31 03:29:12;;;;;;;2.33;0.88;;;;;;;10.40;84.16;96653.66;5064819;28;20219;-79
2023/10/31 03:31:39;;;;;;;1.73;1.00;;;;;;;10.40;83.32;96640.97;5066359;28;20227;-78
2023/10/31 03:34:06;;;;;;;1.73;1.00;;;;;;;10.43;83.96;96642.38;5065188;28;20261;-78
2023/10/31 03:36:32;;;;;;;1.00;0.73;;;;;;;10.53;84.30;96652.63;5062834;28;20192;-79
2023/10/31 03:38:59;;;;;;;1.25;0.90;;;;;;;10.52;83.72;96649.09;5064957;28;20279;-79
2023/10/31 03:41:25;;;;;;;1.00;0.75;;;;;;;10.58;82.88;96645.44;5067412;28;20230;-80
2023/10/31 03:43:52;;;;;;;0.90;0.80;;;;;;;10.49;83.11;96652.25;5064503;28;20200;-79
2023/10/31 03:46:18;;;;;;;2.35;0.82;;;;;;;10.42;83.99;96648.84;5069425;28;20523;-79
2023/10/31 03:48:46;;;;;;;4.65;0.90;;;;;;;10.37;83.95;96654.16;5069944;28;20555;-79
2023/10/31 03:51:12;;;;;;;1.15;0.80;;;;;;;10.46;84.39;96663.53;5070684;28;20689;-79
2023/10/31 03:53:39;;;;;;;1.77;0.80;;;;;;;10.43;83.74;96659.44;5072140;28;20231;-79
2023/10/31 03:56:06;;;;;;;1.27;0.80;;;;;;;10.55;82.66;96655.91;5065720;28;20200;-79
2023/10/31 03:58:32;;;;;;;1.33;0.80;;;;;;;10.47;83.27;96654.38;5069490;28;20196;-78
2023/10/31 04:00:59;;;;;;;1.75;0.93;;;;;;;10.32;81.68;96644.03;5070558;28;20225;-78
2023/10/31 04:03:25;;;;;;;1.55;0.70;;;;;;;10.40;81.20;96653.66;5070023;28;20571;-79
2023/10/31 04:05:54;;;;;;;2.42;0.70;;;;;;;10.44;81.39;96654.84;5070506;28;20773;-78
2023/10/31 04:08:20;;;;;;;0.90;0.75;;;;;;;10.58;80.96;96661.66;5069897;28;20224;-79
2023/10/31 04:10:47;;;;;;;1.90;0.80;;;;;;;10.54;80.81;96657.78;5068977;28;20281;-78
2023/10/31 04:13:13;;;;;;;0.70;0.70;;;;;;;10.38;81.27;96662.03;5066585;28;20317;-78
2023/10/31 04:15:40;;;;;;;2.20;0.80;;;;;;;10.47;80.31;96662.50;5068175;28;20196;-78
2023/10/31 04:18:07;;;;;;;0.70;0.70;;;;;;;10.44;79.88;96660.25;5069708;28;20524;-78
2023/10/31 04:20:34;;;;;;;1.10;0.70;;;;;;;10.42;79.24;96667.78;5069720;28;20257;-78
2023/10/31 04:23:01;;;;;;;1.08;0.70;;;;;;;10.47;79.17;96665.19;5063989;28;20220;-79
2023/10/31 04:25:29;;;;;;;0.70;0.60;;;;;;;10.56;78.37;96663.78;5067313;28;20238;-79
2023/10/31 04:27:55;;;;;;;1.23;0.70;;;;;;;10.52;78.85;96673.44;5069330;28;20584;-77
2023/10/31 04:30:22;;;;;;;1.35;0.60;;;;;;;10.45;78.36;96675.41;5045093;28;20482;-78
2023/10/31 04:32:48;;;;;;;1.13;0.73;;;;;;;10.54;78.76;96676.72;5066959;28;20278;-79
2023/10/31 04:35:15;;;;;;;1.50;0.90;;;;;;;10.58;79.15;96680.59;5069878;28;20214;-78
2023/10/31 04:37:42;;;;;;;1.70;0.77;;;;;;;10.49;79.54;96668.47;5070773;28;20360;-79
2023/10/31 04:40:11;;;;;;;1.40;0.80;;;;;;;10.61;79.83;96679.31;5067514;28;20204;-78
2023/10/31 04:42:39;;;;;;;1.40;0.90;;;;;;;10.65;80.14;96678.63;5065607;28;20216;-79
2023/10/31 04:45:07;;;;;;;2.05;0.80;;;;;;;10.70;80.23;96684.16;5067994;28;20223;-79
2023/10/31 04:47:33;;;;;;;3.45;0.90;;;;;;;10.61;80.57;96690.13;5068734;28;20199;-79
2023/10/31 04:50:00;;;;;;;0.90;0.75;;;;;;;10.45;80.46;96699.75;5069675;28;20500;-80
2023/10/31 04:52:26;;;;;;;0.93;0.77;;;;;;;10.40;80.69;96705.03;5070294;28;20246;-80
2023/10/31 04:54:53;;;;;;;1.10;0.80;;;;;;;10.44;79.93;96698.94;5069721;28;20204;-80
2023/10/31 04:57:21;;;;;;;1.73;0.70;;;;;;;10.52;79.27;96696.94;5068125;28;20919;-79
2023/10/31 04:59:47;;;;;;;1.73;0.95;;;;;;;10.39;79.46;96700.72;5064339;28;20439;-79
2023/10/31 05:02:14;;;;;;;0.80;0.65;;;;;;;10.48;79.45;96702.00;5068050;28;20302;-79
2023/10/31 05:04:40;;;;;;;1.38;0.70;;;;;;;10.39;80.16;96695.31;5067919;28;20227;-79
2023/10/31 05:07:08;;;;;;;2.00;0.80;;;;;;;10.25;80.52;96688.47;5068816;28;20291;-78
2023/10/31 05:09:35;;;;;;;2.20;0.82;;;;;;;10.39;80.16;96698.03;5068041;28;20278;-79
2023/10/31 05:12:01;;;;;;;1.13;0.93;;;;;;;10.31;79.16;96701.06;5070040;28;20231;-78
2023/10/31 05:14:32;;;;;;;1.10;0.80;;;;;;;10.28;79.77;96705.06;5067603;28;20212;-78
2023/10/31 05:16:58;;;;;;;0.90;0.77;;;;;;;10.18;79.38;96709.34;5069611;28;20218;-79
2023/10/31 05:19:25;;;;;;;0.90;0.70;;;;;;;10.15;79.75;96716.03;5066115;28;20196;-79
2023/10/31 05:21:52;;;;;;;1.17;0.80;;;;;;;10.14;79.18;96724.38;5066153;28;20749;-78
2023/10/31 05:24:19;;;;;;;1.33;0.80;;;;;;;10.09;79.07;96717.78;5068480;28;20200;-78
2023/10/31 05:26:45;;;;;;;1.33;0.70;;;;;;;10.03;78.55;96724.13;5067227;28;20196;-78
2023/10/31 05:29:12;;;;;;;2.10;0.80;;;;;;;9.86;79.08;96717.72;5069185;28;20195;-78
2023/10/31 05:31:41;;;;;;;0.90;0.80;;;;;;;9.77;79.86;96719.09;5067801;28;20223;-78
2023/10/31 05:34:07;;;;;;;1.10;0.80;;;;;;;9.85;79.27;96726.88;5067023;28;20205;-78
2023/10/31 05:36:34;;;;;;;0.90;0.70;;;;;;;9.93;78.58;96731.97;5067188;28;20212;-79
2023/10/31 05:39:00;;;;;;;1.63;0.80;;;;;;;9.96;79.02;96728.81;5065538;28;20216;-79
2023/10/31 05:41:27;;;;;;;0.82;0.70;;;;;;;9.83;79.49;96723.59;5066366;28;20795;-79
2023/10/31 05:43:54;;;;;;;1.23;0.73;;;;;;;9.82;79.38;96721.13;5069685;28;20193;-79
2023/10/31 05:46:21;;;;;;;1.45;0.80;;;;;;;9.83;79.48;96720.88;5068480;28;20569;-79
2023/10/31 05:48:49;;;;;;;1.45;0.80;;;;;;;9.74;80.05;96719.59;5068523;28;20204;-79
2023/10/31 05:51:16;;;;;;;1.35;0.82;;;;;;;9.84;79.73;96717.13;5063802;28;20247;-77
2023/10/31 05:53:45;;;;;;;2.15;1.02;;;;;;;9.93;79.11;96729.28;5066911;28;20203;-79
2023/10/31 05:56:12;;;;;;;0.98;0.60;;;;;;;9.82;79.37;96726.53;5062331;28;20198;-79
2023/10/31 05:58:39;;;;;;;1.00;0.60;;;;;;;9.96;78.86;96728.81;5066137;28;20196;-79
2023/10/31 06:01:06;;;;;;;2.60;0.73;;;;;;;9.79;79.88;96741.31;5064196;28;20229;-79
2023/10/31 06:03:33;;;;;;;4.65;1.10;;;;;;;9.71;79.60;96742.47;5067430;28;20199;-79
2023/10/31 06:06:00;;;;;;;1.17;0.82;;;;;;;9.71;80.02;96753.28;5066947;28;20298;-81
2023/10/31 06:08:28;;;;;;;1.38;0.70;;;;;;;9.90;80.15;96764.88;5062993;28;20238;-79
2023/10/31 06:10:55;;;;;;;2.00;0.77;;;;;;;9.92;79.90;96760.06;5065008;28;20205;-79
2023/10/31 06:13:22;;;;;;;1.80;0.70;;;;;;;9.96;79.11;96772.06;5067941;28;20231;-79
2023/10/31 06:15:48;;;;;;;1.33;0.70;;;;;;;9.88;78.86;96766.97;5067169;28;20262;-79
2023/10/31 06:18:15;;;;;;;0.65;0.65;;;;;;;9.90;78.55;96759.47;5066906;28;20207;-79
2023/10/31 06:20:41;;;;;;;2.20;0.70;;;;;;;9.92;78.93;96760.06;5065190;28;20652;-79
2023/10/31 06:23:09;;;;;;;1.35;0.60;;;;;;;10.00;78.45;96759.75;5060944;28;20199;-80
2023/10/31 06:25:36;;;;;;;0.90;0.70;;;;;;;10.06;77.96;96769.63;5066509;28;20337;-79
2023/10/31 06:28:03;;;;;;;1.33;0.90;;;;;;;10.11;77.82;96774.31;5068527;28;20235;-79
2023/10/31 06:30:29;;;;;;;2.28;1.10;;;;;;;10.02;78.62;96786.53;5067265;28;20200;-80
2023/10/31 06:32:56;;;;;;;1.17;0.75;;;;;;;9.87;78.37;96784.22;5062913;28;20261;-79
2023/10/31 06:35:24;;;;;;;1.73;1.10;;;;;;;9.90;77.81;96791.88;5061707;28;20628;-77
2023/10/31 06:37:50;;;;;;;1.38;0.70;;;;;;;9.88;77.78;96790.47;5066559;28;20196;-80
2023/10/31 06:40:18;;;;;;;5.50;0.90;;;;;;;10.03;76.46;96786.31;5066471;28;20200;-79
2023/10/31 06:42:45;;;;;;;0.90;0.80;;;;;;;10.13;75.64;96791.13;5063281;28;20683;-79
2023/10/31 06:45:11;;;;;;;1.08;0.73;;;;;;;10.06;76.47;96799.38;5066140;28;20265;-80
2023/10/31 06:47:38;;;;;;;1.45;0.80;;;;;;;10.02;75.86;96800.88;5062921;28;20210;-79
2023/10/31 06:50:05;;;;;;;0.70;0.50;;;;;;;10.16;74.21;96798.78;5065799;28;20213;-79
2023/10/31 06:52:32;;;;;;;2.97;0.80;;;;;;;10.10;74.33;96811.34;5063681;28;20692;-79
2023/10/31 06:54:58;;;;;;;1.35;0.80;;;;;;;10.18;74.06;96818.31;5065986;28;20202;-79
2023/10/31 06:57:26;;;;;;;1.77;0.80;;;;;;;10.18;73.79;96812.09;5063728;28;20205;-74
2023/10/31 06:59:53;;;;;;;0.80;0.77;;;;;;;10.29;73.72;96822.97;5063757;28;20566;-74
2023/10/31 07:02:20;;;;;;;1.80;0.88;;;;;;;10.46;73.14;96825.84;5053625;28;20654;-74
2023/10/31 07:04:46;;;;;;;4.40;0.90;;;;;;;10.41;73.84;96823.00;5064744;28;20200;-74
2023/10/31 07:07:13;;;;;;;1.00;0.63;;;;;;;10.38;74.08;96823.47;5066947;28;20203;-75
2023/10/31 07:09:39;;;;;;;1.10;1.00;;;;;;;10.32;74.30;96824.41;5065948;28;20560;-78
2023/10/31 07:12:06;;;;;;;1.48;0.90;;;;;;;10.46;75.11;96825.84;5060477;28;20230;-75
2023/10/31 07:14:34;;;;;;;6.15;1.10;;;;;;;10.37;75.32;96838.88;5067434;28;20203;-74
2023/10/31 07:17:01;;;;;;;1.60;0.90;;;;;;;10.40;75.50;96837.56;5064063;28;20210;-74
2023/10/31 07:19:27;;;;;;;0.98;0.90;;;;;;;10.36;76.43;96836.41;5066277;28;20208;-74
2023/10/31 07:21:54;;;;;;;1.25;0.65;;;;;;;10.46;76.07;96842.06;5058093;28;20582;-74
2023/10/31 07:24:20;;;;;;;1.80;0.82;;;;;;;10.45;76.22;96851.22;5061141;28;20206;-74
2023/10/31 07:26:47;;;;;;;1.67;0.90;;;;;;;10.33;77.39;96853.91;5063159;28;20325;-75
2023/10/31 07:29:13;;;;;;;1.20;0.80;;;;;;;10.33;76.53;96853.09;5075004;28;20196;-76
2023/10/31 07:31:42;;;;;;;0.80;0.70;;;;;;;10.41;77.03;96852.75;5072005;28;20225;-83
2023/10/31 07:34:10;;;;;;;2.28;0.80;;;;;;;10.55;76.73;96861.50;5093181;28;20264;-81
2023/10/31 07:36:37;;;;;;;1.05;0.70;;;;;;;10.43;77.36;96856.03;5083038;28;20236;-84
2023/10/31 07:39:04;;;;;;;1.48;0.70;;;;;;;10.32;76.92;96867.66;5066772;28;20269;-75
2023/10/31 07:41:31;;;;;;;2.60;0.70;;;;;;;10.47;77.40;96865.34;5062297;28;20224;-76
2023/10/31 07:43:57;;;;;;;1.63;0.90;;;;;;;10.74;76.32;96863.88;5066716;28;20200;-75
2023/10/31 07:46:24;;;;;;;0.95;0.75;;;;;;;10.52;76.40;96861.97;5067842;28;20228;-74
2023/10/31 07:48:52;;;;;;;0.95;0.85;;;;;;;10.38;77.06;96872.16;5072099;28;20202;-73
2023/10/31 07:51:18;;;;;;;1.05;0.70;;;;;;;10.49;77.73;96878.66;5071698;28;20203;-73
2023/10/31 07:53:46;;;;;;;2.08;1.08;;;;;;;10.63;77.16;96877.41;5069144;28;20196;-74
2023/10/31 07:56:16;;;;;;;1.23;0.88;;;;;;;10.71;75.80;96879.78;5062840;28;20222;-73
2023/10/31 07:58:42;;;;;;;0.95;0.88;;;;;;;10.68;76.15;96883.78;5064467;28;20215;-74
2023/10/31 08:01:10;;;;;;;1.08;0.70;;;;;;;10.91;75.92;96879.47;5063787;28;20222;-74
2023/10/31 08:03:37;;;;;;;0.90;0.68;;;;;;;10.88;75.48;96880.75;5066525;28;20608;-75
2023/10/31 08:06:07;;;;;;;1.17;0.70;;;;;;;10.84;75.28;96884.97;5058154;28;20235;-73
2023/10/31 08:08:34;;;;;;;1.40;0.80;;;;;;;10.96;75.14;96880.44;5054663;28;20218;-75
2023/10/31 08:11:00;;;;;;;1.60;0.80;;;;;;;10.85;75.42;96883.09;5063847;28;20242;-73
2023/10/31 08:13:27;;;;;;;2.10;0.80;;;;;;;11.13;75.21;96885.16;5063025;28;20192;-76
2023/10/31 08:15:53;;;;;;;1.50;0.70;;;;;;;11.37;74.10;96886.81;5068029;28;20659;-77
2023/10/31 08:18:20;;;;;;;1.17;0.70;;;;;;;11.05;73.97;96886.31;5069283;28;20549;-76
2023/10/31 08:20:49;;;;;;;0.73;0.60;;;;;;;11.09;74.25;96887.50;5069359;28;20239;-77
2023/10/31 08:23:17;;;;;;;0.80;0.70;;;;;;;11.28;74.41;96888.22;5068988;28;20219;-76
2023/10/31 08:25:43;;;;;;;1.13;0.82;;;;;;;11.15;74.33;96894.69;5070590;28;20227;-77
2023/10/31 08:28:10;;;;;;;1.15;0.77;;;;;;;11.16;74.27;96903.63;5067164;28;20199;-76
2023/10/31 08:30:38;;;;;;;1.05;0.80;;;;;;;11.18;74.43;96912.34;5067384;28;20204;-77
2023/10/31 08:33:04;;;;;;;1.30;0.75;;;;;;;11.11;74.63;96907.03;5065597;28;20192;-77
2023/10/31 08:35:31;;;;;;;3.15;0.90;;;;;;;11.03;75.41;96918.22;5062373;28;20199;-77
2023/10/31 08:37:57;;;;;;;1.60;0.60;;;;;;;11.13;75.35;96918.47;5066672;28;20207;-77
2023/10/31 08:40:26;;;;;;;1.38;0.70;;;;;;;11.42;74.13;96928.38;5061235;28;20227;-77
2023/10/31 08:42:53;;;;;;;2.30;0.80;;;;;;;11.79;72.11;96925.47;5058340;28;20192;-76
2023/10/31 08:45:19;;;;;;;2.20;1.00;;;;;;;12.02;70.80;96922.72;5062587;28;20220;-76
2023/10/31 08:47:46;;;;;;;1.65;0.90;;;;;;;12.31;70.05;96930.91;5060328;28;20314;-77
2023/10/31 08:50:13;;;;;;;2.60;0.90;;;;;;;12.63;68.98;96942.13;5059596;28;20739;-76
2023/10/31 08:52:40;;;;;;;2.85;0.80;;;;;;;12.42;68.88;96938.19;5067953;28;20216;-75
2023/10/31 08:55:07;;;;;;;2.45;1.10;;;;;;;12.43;68.14;96929.81;5068860;28;20287;-76
2023/10/31 08:57:35;;;;;;;2.42;0.80;;;;;;;12.43;68.89;96937.13;5065163;28;20291;-76
2023/10/31 09:00:04;;;;;;;1.58;0.80;;;;;;;12.62;68.77;96925.03;5068369;28;20580;-77
2023/10/31 09:02:31;;;;;;;2.85;0.80;;;;;;;12.77;67.81;96930.72;5066837;28;20247;-76
2023/10/31 09:04:57;;;;;;;4.00;0.90;;;;;;;13.23;66.49;96918.00;5063281;28;20204;-76
2023/10/31 09:07:24;;;;;;;0.80;0.77;;;;;;;13.22;65.49;96916.34;5057078;28;20501;-76
2023/10/31 09:09:50;;;;;;;11.67;1.80;;;;;;;13.39;66.29;96925.31;5062199;28;20459;-76
2023/10/31 09:12:17;;;;;;;1.40;0.80;;;;;;;13.32;65.10;96938.22;5061627;28;21031;-76
2023/10/31 09:14:45;;;;;;;2.17;0.90;;;;;;;13.21;64.62;96936.44;5056321;28;20463;-76
2023/10/31 09:17:11;;;;;;;1.43;0.80;;;;;;;13.34;64.90;96938.81;5056637;28;20606;-76
2023/10/31 09:19:38;;;;;;;3.97;1.10;;;;;;;13.10;65.72;96937.28;5066586;28;20462;-76
2023/10/31 09:22:05;;;;;;;1.90;0.97;;;;;;;12.90;65.24;96915.22;5052134;28;20481;-76
2023/10/31 09:24:31;;;;;;;2.23;1.13;;;;;;;12.73;65.01;96943.13;5055161;28;20466;-77
2023/10/31 09:26:58;;;;;;;2.20;1.00;;;;;;;13.01;65.69;96966.72;5065917;28;20495;-77
2023/10/31 09:29:24;;;;;;;1.73;1.10;;;;;;;13.20;65.12;96940.22;5062354;28;20460;-77
2023/10/31 09:31:52;;;;;;;2.57;1.30;;;;;;;13.02;65.33;96932.25;5065472;28;20869;-76
2023/10/31 09:34:18;;;;;;;3.23;0.80;;;;;;;12.92;66.06;96940.22;5066614;28;20460;-82
2023/10/31 09:36:45;;;;;;;1.10;0.90;;;;;;;13.07;64.36;96940.47;5076722;28;20459;-79
2023/10/31 09:39:12;;;;;;;1.93;0.80;;;;;;;13.06;64.67;96941.56;5054467;28;20466;-76
2023/10/31 09:41:38;;;;;;;2.80;1.20;;;;;;;12.89;65.36;96935.28;5060400;28;20468;-77
2023/10/31 09:44:05;;;;;;;1.33;0.80;;;;;;;13.13;65.19;96929.47;5055455;28;20454;-77
2023/10/31 09:46:32;;;;;;;2.20;1.13;;;;;;;12.98;64.67;96923.78;5061939;28;20562;-77
2023/10/31 09:49:00;;;;;;;1.77;1.00;;;;;;;12.78;65.90;96932.38;5058262;28;20543;-77
2023/10/31 09:51:27;;;;;;;2.57;1.07;;;;;;;12.87;66.50;96934.69;5063539;28;20471;-77
2023/10/31 09:53:55;;;;;;;3.70;1.10;;;;;;;13.00;65.50;96934.38;5055850;28;20459;-78
2023/10/31 09:56:22;;;;;;;3.67;0.83;;;;;;;12.96;65.58;96936.78;5064274;28;20438;-77
2023/10/31 09:58:49;;;;;;;1.83;1.10;;;;;;;12.40;66.95;96934.88;5067195;28;20465;-77
2023/10/31 10:01:15;;;;;;;5.00;1.08;;;;;;;12.65;66.88;96931.88;5064101;28;20993;-77
2023/10/31 10:03:43;;;;;;;2.88;1.10;;;;;;;12.73;67.07;96940.41;5064031;28;20211;-77
2023/10/31 10:06:11;;;;;;;1.60;1.00;;;;;;;12.37;67.33;96891.94;5063135;28;20235;-77
2023/10/31 10:08:38;;;;;;;3.80;0.90;;;;;;;12.75;68.12;96927.44;5066588;28;20467;-75
2023/10/31 10:11:05;;;;;;;2.35;1.10;;;;;;;12.61;66.95;96925.25;5061269;28;20223;-77
2023/10/31 10:13:32;;;;;;;1.73;1.03;;;;;;;12.91;66.89;96933.16;5060191;28;20205;-78
2023/10/31 10:15:58;;;;;;;4.43;1.00;;;;;;;13.03;65.42;96917.59;5064154;28;21064;-77
2023/10/31 10:18:25;;;;;;;3.80;1.60;;;;;;;12.97;65.27;96919.44;5066326;28;20864;-77
2023/10/31 10:20:56;;;;;;;2.70;1.00;;;;;;;13.21;64.35;96919.31;5064533;28;20822;-81
2023/10/31 10:23:24;;;;;;;2.00;0.93;;;;;;;13.20;64.29;96923.91;5057332;28;20204;-78
2023/10/31 10:25:51;;;;;;;2.60;0.80;;;;;;;13.17;64.09;96929.00;5065215;28;20472;-77
2023/10/31 10:28:18;;;;;;;4.37;1.50;;;;;;;13.07;65.12;96935.06;5062142;28;20435;-78
2023/10/31 10:30:46;;;;;;;9.83;2.17;;;;;;;13.51;64.42;96929.84;5064815;28;20495;-78
2023/10/31 10:33:12;;;;;;;1.70;1.20;;;;;;;13.49;63.77;96931.97;5063002;28;20463;-78
2023/10/31 10:35:38;;;;;;;2.67;1.10;;;;;;;13.78;63.54;96930.78;5060303;28;20463;-78
2023/10/31 10:38:11;;;;;;;3.07;0.90;;;;;;;13.52;64.24;96931.50;5065857;28;20447;-78
2023/10/31 10:40:40;;;;;;;2.80;1.30;;;;;;;13.25;64.71;96953.88;5061904;28;20558;-78
2023/10/31 10:43:09;;;;;;;2.93;1.00;;;;;;;13.27;65.21;96954.47;5067226;28;20433;-78
2023/10/31 10:45:37;;;;;;;2.73;1.30;;;;;;;13.33;65.11;96950.75;5063436;28;20580;-78
2023/10/31 10:48:06;;;;;;;2.40;1.00;;;;;;;13.38;64.85;96950.00;5064487;28;20490;-76
2023/10/31 10:50:35;;;;;;;3.43;0.90;;;;;;;13.48;64.05;96950.19;5064954;28;20475;-75
2023/10/31 10:53:14;;;;;;;4.00;1.03;;;;;;;13.22;64.91;96932.66;5065973;28;20542;-78
2023/10/31 10:55:46;;;;;;;2.30;1.20;;;;;;;13.21;64.73;96928.28;5068423;28;20465;-78
2023/10/31 10:58:17;;;;;;;3.83;1.30;;;;;;;13.35;64.04;96956.75;5068611;28;20483;-79
2023/10/31 11:00:44;;;;;;;5.10;1.33;;;;;;;13.56;63.50;96938.91;5065998;28;20476;-78
2023/10/31 11:03:11;;;;;;;2.30;0.97;;;;;;;13.21;64.93;96903.81;5063108;28;20465;-79
2023/10/31 11:05:38;;;;;;;3.00;0.93;;;;;;;13.35;64.71;96951.31;5063745;28;20464;-79
2023/10/31 11:08:05;;;;;;;1.57;0.80;;;;;;;13.35;65.37;96948.59;5065931;28;20494;-78
2023/10/31 11:10:32;;;;;;;0.80;0.70;;;;;;;13.49;64.01;96949.13;5068884;28;20464;-78
2023/10/31 11:13:00;;;;;;;2.13;0.83;;;;;;;13.33;65.38;96956.19;5064639;28;20453;-78
2023/10/31 11:15:27;;;;;;;1.13;0.70;;;;;;;13.43;64.35;96945.47;5069544;28;20455;-79
2023/10/31 11:17:54;;;;;;;3.00;1.10;;;;;;;12.98;65.45;96959.09;5069596;28;20907;-77
2023/10/31 11:20:21;;;;;;;2.37;1.00;;;;;;;12.75;65.27;96953.75;5068484;28;20944;-77
2023/10/31 11:22:51;;;;;;;1.53;0.80;;;;;;;12.89;66.10;96968.69;5066512;28;20455;-77
2023/10/31 11:25:20;;;;;;;2.53;0.90;;;;;;;12.99;66.03;96959.91;5066540;28;20483;-77
2023/10/31 11:27:46;;;;;;;1.35;0.75;;;;;;;12.98;65.76;96964.53;5067907;28;20548;-80
2023/10/31 11:30:23;;;;;;;1.47;0.80;;;;;;;12.87;65.55;96961.84;5061853;28;20273;-79
2023/10/31 11:32:50;;;;;;;1.00;0.60;;;;;;;13.05;65.14;96967.88;5068287;28;20806;-76